Time;durP1;ratioP1;P1;durP2;ratioP2;P2;SDS_P1;SDS_P2;PMS_P1;PMS_P2;Temp;Humidity;BMP_temperature;BMP_pressure;BME280_temperature;BME280_humidity;BME280_pressure;Samples;Min_cycle;Max_cycle;Signal;HPM_P1;HPM_P2
2021/05/30 00:01:32;;;;;;;3.60;1.00;;;;;;;13.21;85.08;100126.26;1727310;82;20960;-36
2021/05/30 00:03:59;;;;;;;0.80;0.80;;;;;;;13.22;85.21;100127.12;1717184;82;20970;-35
2021/05/30 00:06:28;;;;;;;2.12;0.98;;;;;;;13.20;85.14;100129.77;1735668;82;21020;-38
2021/05/30 00:08:55;;;;;;;1.32;0.90;;;;;;;13.19;85.18;100131.13;1729786;82;21085;-37
2021/05/30 00:11:22;;;;;;;1.20;1.10;;;;;;;13.16;85.24;100130.77;1734483;82;21038;-35
2021/05/30 00:13:48;;;;;;;1.62;1.00;;;;;;;13.15;84.98;100128.25;1738947;82;21140;-36
2021/05/30 00:16:15;;;;;;;7.92;1.30;;;;;;;13.11;84.78;100137.89;1736311;82;21085;-37
2021/05/30 00:18:43;;;;;;;7.60;1.80;;;;;;;13.10;84.77;100140.09;1728933;82;20953;-36
2021/05/30 00:21:09;;;;;;;3.08;0.88;;;;;;;13.07;84.71;100151.89;1721476;82;20963;-37
2021/05/30 00:23:36;;;;;;;1.37;1.10;;;;;;;13.02;84.77;100144.23;1732956;82;20907;-37
2021/05/30 00:26:04;;;;;;;4.67;1.00;;;;;;;12.97;84.58;100146.58;1732509;82;21168;-35
2021/05/30 00:28:30;;;;;;;2.67;1.07;;;;;;;12.91;84.44;100144.59;1722568;82;21458;-37
2021/05/30 00:30:57;;;;;;;4.53;1.10;;;;;;;12.91;84.25;100146.36;1731878;82;21685;-37
2021/05/30 00:33:23;;;;;;;3.17;1.02;;;;;;;12.89;84.11;100146.86;1708907;82;20934;-37
2021/05/30 00:35:50;;;;;;;1.80;1.10;;;;;;;12.86;84.11;100156.89;1721762;82;21034;-37
2021/05/30 00:38:16;;;;;;;1.30;0.93;;;;;;;12.82;84.17;100159.19;1734189;82;21091;-37
2021/05/30 00:40:43;;;;;;;3.05;1.15;;;;;;;12.79;84.34;100159.30;1731262;81;20942;-37
2021/05/30 00:43:09;;;;;;;2.67;1.02;;;;;;;12.79;84.42;100160.59;1723816;82;20962;-37
2021/05/30 00:45:36;;;;;;;1.67;1.17;;;;;;;12.78;84.44;100159.73;1708535;82;20938;-35
2021/05/30 00:48:04;;;;;;;1.22;0.80;;;;;;;12.77;84.67;100163.69;1720217;82;20938;-35
2021/05/30 00:50:30;;;;;;;5.75;1.05;;;;;;;12.79;84.78;100158.00;1733850;82;21914;-34
2021/05/30 00:52:57;;;;;;;8.68;1.22;;;;;;;12.77;84.68;100161.09;1724132;82;21622;-37
2021/05/30 00:55:27;;;;;;;3.70;1.10;;;;;;;12.71;84.68;100162.56;1728888;82;21045;-36
2021/05/30 00:57:53;;;;;;;1.10;1.00;;;;;;;12.66;84.67;100167.93;1715826;82;20961;-37
2021/05/30 01:00:21;;;;;;;2.83;1.00;;;;;;;12.62;84.96;100162.41;1742254;82;21021;-37
2021/05/30 01:02:48;;;;;;;1.00;0.65;;;;;;;12.60;85.51;100158.58;1733559;82;21097;-36
2021/05/30 01:05:15;;;;;;;0.82;0.82;;;;;;;12.56;85.65;100160.88;1726351;82;21021;-37
2021/05/30 01:07:42;;;;;;;0.98;0.80;;;;;;;12.50;85.90;100159.31;1714233;81;21669;-34
2021/05/30 01:10:29;;;;;;;2.60;0.70;;;;;;;12.46;86.11;100160.74;1732070;82;21558;-36
2021/05/30 01:12:57;;;;;;;4.15;1.17;;;;;;;12.42;86.30;100148.76;1740810;82;21482;-36
2021/05/30 01:15:30;;;;;;;1.75;0.95;;;;;;;12.36;86.42;100140.70;1738164;81;21895;-38
2021/05/30 01:17:56;;;;;;;1.27;1.20;;;;;;;12.29;86.51;100145.27;1736794;82;20946;-38
2021/05/30 01:20:25;;;;;;;3.60;1.15;;;;;;;12.26;87.11;100153.58;1728109;82;21054;-37
2021/05/30 01:22:52;;;;;;;1.98;1.05;;;;;;;12.23;87.47;100142.00;1719016;81;21049;-37
2021/05/30 01:25:22;;;;;;;6.50;1.50;;;;;;;12.23;87.92;100151.91;1730963;82;20930;-37
2021/05/30 01:27:50;;;;;;;3.47;0.70;;;;;;;12.23;88.18;100145.42;1715874;82;21498;-35
2021/05/30 01:30:20;;;;;;;11.93;1.30;;;;;;;12.21;88.37;100144.63;1737926;82;21057;-37
2021/05/30 01:32:47;;;;;;;4.83;1.40;;;;;;;12.18;88.48;100142.13;1730574;82;21504;-37
2021/05/30 01:35:14;;;;;;;4.67;1.30;;;;;;;12.16;88.63;100142.63;1737010;82;21013;-35
2021/05/30 01:37:42;;;;;;;4.17;1.30;;;;;;;12.16;89.01;100140.89;1738924;82;20935;-37
2021/05/30 01:40:11;;;;;;;3.65;1.10;;;;;;;12.17;89.07;100149.50;1740155;82;21164;-35
2021/05/30 01:42:37;;;;;;;9.95;1.10;;;;;;;12.18;89.13;100157.69;1735536;82;21637;-36
2021/05/30 01:45:07;;;;;;;8.08;1.20;;;;;;;12.16;89.20;100156.89;1726070;82;20990;-37
2021/05/30 01:47:39;;;;;;;2.90;1.00;;;;;;;12.12;89.34;100160.02;1708796;82;20997;-35
2021/05/30 01:50:09;;;;;;;4.33;0.88;;;;;;;12.12;89.43;100157.88;1717898;82;20871;-35
2021/05/30 01:52:36;;;;;;;5.10;1.75;;;;;;;12.12;89.52;100159.17;1726131;81;21693;-37
2021/05/30 01:55:06;;;;;;;3.50;1.12;;;;;;;12.13;89.57;100147.91;1720533;82;20993;-37
2021/05/30 01:57:46;;;;;;;1.70;0.85;;;;;;;12.15;89.62;100152.59;1722648;82;21081;-36
2021/05/30 02:00:15;;;;;;;3.60;1.15;;;;;;;12.14;89.59;100152.20;1690055;83;21173;-35
2021/05/30 02:02:46;;;;;;;1.55;0.90;;;;;;;12.13;89.66;100159.15;1733540;82;21002;-34
2021/05/30 02:05:13;;;;;;;0.95;0.90;;;;;;;12.15;89.66;100157.78;1733472;82;21140;-35
2021/05/30 02:07:40;;;;;;;2.20;1.12;;;;;;;12.16;89.69;100169.86;1741877;82;21037;-35
2021/05/30 02:10:10;;;;;;;3.17;1.20;;;;;;;12.19;89.67;100165.87;1742159;82;21057;-35
2021/05/30 02:12:37;;;;;;;1.05;0.90;;;;;;;12.21;89.70;100169.27;1713144;81;21105;-36
2021/05/30 02:15:05;;;;;;;1.07;0.90;;;;;;;12.22;89.80;100173.56;1738675;82;20915;-36
2021/05/30 02:17:32;;;;;;;4.72;1.20;;;;;;;12.24;89.89;100172.23;1717242;82;21589;-36
2021/05/30 02:19:58;;;;;;;2.05;1.00;;;;;;;12.24;89.86;100166.58;1714298;81;21512;-37
2021/05/30 02:22:25;;;;;;;4.58;1.45;;;;;;;12.25;89.96;100165.72;1739960;81;21563;-35
2021/05/30 02:24:51;;;;;;;1.32;1.12;;;;;;;12.26;90.08;100167.41;1716978;82;21088;-35
2021/05/30 02:27:19;;;;;;;2.72;0.93;;;;;;;12.25;90.35;100166.16;1725245;82;20934;-36
2021/05/30 02:29:45;;;;;;;1.35;1.15;;;;;;;12.26;90.45;100170.01;1718844;82;21089;-37
2021/05/30 02:32:13;;;;;;;2.37;1.05;;;;;;;12.28;90.55;100172.55;1718570;82;20981;-36
2021/05/30 02:34:42;;;;;;;5.62;1.20;;;;;;;12.29;90.51;100176.41;1708740;82;21053;-36
2021/05/30 02:37:16;;;;;;;9.85;1.40;;;;;;;12.30;90.63;100181.12;1717132;82;21641;-38
2021/05/30 02:39:43;;;;;;;2.12;1.12;;;;;;;12.31;90.61;100179.80;1731744;82;20910;-34
2021/05/30 02:42:10;;;;;;;1.22;1.12;;;;;;;12.32;90.60;100180.20;1715917;82;21029;-36
2021/05/30 02:44:37;;;;;;;1.35;1.02;;;;;;;12.32;90.69;100182.80;1726781;82;21037;-35
2021/05/30 02:47:04;;;;;;;1.77;1.12;;;;;;;12.33;90.71;100179.30;1729056;82;20934;-36
2021/05/30 02:49:33;;;;;;;9.18;1.30;;;;;;;12.34;90.76;100188.78;1709562;82;21001;-36
2021/05/30 02:52:00;;;;;;;3.37;1.17;;;;;;;12.33;90.83;100189.69;1729656;82;20994;-38
2021/05/30 02:54:27;;;;;;;9.23;1.30;;;;;;;12.35;90.87;100187.89;1743998;82;21018;-36
2021/05/30 02:56:54;;;;;;;11.75;1.42;;;;;;;12.35;90.85;100187.89;1731617;82;20919;-35
2021/05/30 02:59:21;;;;;;;3.52;1.10;;;;;;;12.35;90.74;100195.67;1716623;82;20985;-35
2021/05/30 03:01:47;;;;;;;5.22;1.55;;;;;;;12.40;90.78;100193.38;1718938;82;20985;-35
2021/05/30 03:04:13;;;;;;;3.05;1.30;;;;;;;12.42;90.31;100194.19;1735402;82;21042;-36
2021/05/30 03:06:40;;;;;;;3.92;1.10;;;;;;;12.43;90.17;100195.88;1708580;82;21066;-36
2021/05/30 03:09:06;;;;;;;6.37;1.07;;;;;;;12.45;90.03;100194.09;1713019;82;20997;-39
2021/05/30 03:11:33;;;;;;;2.37;0.93;;;;;;;12.50;90.04;100197.39;1731650;82;20868;-36
2021/05/30 03:14:00;;;;;;;2.83;1.42;;;;;;;12.55;90.02;100199.42;1741761;82;21693;-36
2021/05/30 03:16:27;;;;;;;3.52;1.20;;;;;;;12.60;89.93;100192.77;1709155;82;21607;-35
2021/05/30 03:18:55;;;;;;;3.47;1.52;;;;;;;12.63;89.25;100188.34;1713871;82;21040;-36
2021/05/30 03:21:21;;;;;;;11.57;2.08;;;;;;;12.68;89.03;100188.64;1719061;82;20995;-38
2021/05/30 03:23:48;;;;;;;4.25;1.20;;;;;;;12.73;88.82;100180.25;1740083;81;20994;-38
2021/05/30 03:26:14;;;;;;;4.45;1.25;;;;;;;12.77;88.53;100184.47;1738541;82;20970;-35
2021/05/30 03:28:41;;;;;;;1.85;1.32;;;;;;;12.83;88.42;100184.27;1736199;82;20974;-36
2021/05/30 03:31:08;;;;;;;7.33;1.27;;;;;;;12.90;88.12;100187.52;1724866;82;21026;-38
2021/05/30 03:33:35;;;;;;;6.40;1.30;;;;;;;12.97;87.89;100195.94;1733583;81;20978;-35
2021/05/30 03:36:05;;;;;;;1.37;1.27;;;;;;;13.01;87.26;100191.05;1725910;82;20962;-38
2021/05/30 03:38:31;;;;;;;2.52;1.00;;;;;;;13.08;86.92;100203.78;1713251;82;20985;-38
2021/05/30 03:41:02;;;;;;;5.08;0.95;;;;;;;13.19;86.80;100196.94;1723828;82;20854;-35
2021/05/30 03:43:29;;;;;;;7.70;0.90;;;;;;;13.32;85.79;100192.64;1724624;82;21131;-37
2021/05/30 03:45:56;;;;;;;7.20;1.00;;;;;;;13.50;85.68;100198.98;1735582;81;21077;-37
2021/05/30 03:48:23;;;;;;;7.85;1.30;;;;;;;13.73;84.38;100199.93;1735366;82;21076;-36
2021/05/30 03:50:50;;;;;;;4.03;1.05;;;;;;;14.00;84.17;100198.53;1709181;82;21057;-38
2021/05/30 03:53:18;;;;;;;6.70;0.98;;;;;;;14.32;83.85;100199.94;1738217;82;20982;-38
2021/05/30 03:55:45;;;;;;;0.80;0.80;;;;;;;14.57;80.91;100200.29;1718899;82;21138;-36
2021/05/30 03:58:12;;;;;;;6.72;1.10;;;;;;;14.68;79.11;100194.66;1733395;82;20974;-35
2021/05/30 04:00:40;;;;;;;0.78;0.78;;;;;;;14.83;78.11;100197.58;1728145;82;21017;-37
2021/05/30 04:03:06;;;;;;;1.95;0.70;;;;;;;14.94;77.19;100195.39;1737034;82;21508;-38
2021/05/30 04:05:33;;;;;;;4.22;1.12;;;;;;;15.07;76.56;100195.74;1741136;82;21049;-37
2021/05/30 04:07:59;;;;;;;0.90;0.90;;;;;;;15.19;75.52;100197.83;1697741;82;21676;-38
2021/05/30 04:10:26;;;;;;;0.70;0.70;;;;;;;15.33;74.75;100204.23;1733845;82;20939;-36
2021/05/30 04:12:53;;;;;;;1.15;0.70;;;;;;;15.43;74.50;100202.91;1724483;82;21538;-38
2021/05/30 04:15:19;;;;;;;4.42;0.80;;;;;;;15.57;74.29;100198.88;1730024;82;21571;-37
2021/05/30 04:17:47;;;;;;;0.70;0.60;;;;;;;15.61;72.44;100203.88;1726156;82;20910;-38
2021/05/30 04:20:17;;;;;;;1.00;0.80;;;;;;;15.63;72.76;100209.04;1738455;82;21164;-36
2021/05/30 04:22:44;;;;;;;3.87;0.98;;;;;;;15.65;71.45;100216.34;1732950;82;21050;-37
2021/05/30 04:25:12;;;;;;;4.95;0.80;;;;;;;15.58;69.94;100205.79;1742209;82;20990;-37
2021/05/30 04:27:39;;;;;;;1.27;0.70;;;;;;;15.56;71.31;100206.31;1719323;82;21021;-37
2021/05/30 04:30:07;;;;;;;2.37;0.70;;;;;;;15.59;70.40;100209.63;1729544;82;21072;-38
2021/05/30 04:32:34;;;;;;;1.00;0.90;;;;;;;15.59;71.45;100204.88;1715179;82;21097;-36
2021/05/30 04:35:01;;;;;;;1.10;0.70;;;;;;;15.72;71.94;100203.41;1716648;82;20985;-37
2021/05/30 04:37:28;;;;;;;6.33;0.70;;;;;;;15.91;71.03;100203.50;1724565;82;21100;-35
2021/05/30 04:39:54;;;;;;;2.40;0.93;;;;;;;15.95;70.01;100200.27;1740856;82;20949;-36
2021/05/30 04:42:21;;;;;;;2.52;0.80;;;;;;;15.96;68.86;100202.44;1708749;82;21045;-37
2021/05/30 04:44:47;;;;;;;3.10;0.70;;;;;;;15.97;69.39;100210.66;1731834;82;21077;-35
2021/05/30 04:47:14;;;;;;;3.75;0.95;;;;;;;16.07;69.68;100213.22;1713607;82;20982;-36
2021/05/30 04:49:41;;;;;;;3.22;0.75;;;;;;;16.23;67.73;100215.54;1735639;82;20918;-37
2021/05/30 04:52:09;;;;;;;1.27;1.00;;;;;;;16.25;68.28;100208.09;1729459;82;21617;-34
2021/05/30 04:54:35;;;;;;;2.92;0.70;;;;;;;16.29;68.03;100206.55;1739964;82;21494;-37
2021/05/30 04:57:03;;;;;;;0.88;0.82;;;;;;;16.24;68.14;100213.76;1716031;82;21086;-37
2021/05/30 04:59:30;;;;;;;3.50;0.85;;;;;;;16.25;69.36;100221.98;1731508;82;20993;-36
2021/05/30 05:01:57;;;;;;;2.65;0.80;;;;;;;16.37;68.05;100217.51;1732164;82;21532;-35
2021/05/30 05:04:23;;;;;;;1.02;0.70;;;;;;;16.40;68.46;100220.42;1720881;82;20978;-38
2021/05/30 05:06:50;;;;;;;0.93;0.80;;;;;;;16.60;68.49;100216.03;1725964;82;20994;-36
2021/05/30 05:09:17;;;;;;;3.27;0.85;;;;;;;16.73;68.61;100209.76;1742447;82;21100;-36
2021/05/30 05:11:44;;;;;;;1.00;1.00;;;;;;;16.98;68.32;100208.56;1739293;82;21018;-36
2021/05/30 05:14:11;;;;;;;3.98;0.80;;;;;;;17.12;65.38;100211.83;1738902;82;21029;-38
2021/05/30 05:16:37;;;;;;;2.45;0.70;;;;;;;17.12;65.43;100211.39;1733173;82;21637;-38
2021/05/30 05:19:04;;;;;;;4.30;1.37;;;;;;;17.08;65.45;100215.08;1716376;82;21594;-36
2021/05/30 05:21:33;;;;;;;1.52;0.72;;;;;;;17.00;63.22;100210.22;1742209;82;21073;-36
2021/05/30 05:23:59;;;;;;;1.02;0.60;;;;;;;16.86;64.00;100218.71;1743310;82;20973;-36
2021/05/30 05:26:26;;;;;;;4.53;0.80;;;;;;;16.81;65.41;100215.00;1737352;82;20938;-38
2021/05/30 05:28:53;;;;;;;2.12;0.90;;;;;;;17.00;65.48;100214.59;1733417;82;20910;-39
2021/05/30 05:31:20;;;;;;;1.67;0.70;;;;;;;17.22;64.41;100203.45;1739532;82;21050;-37
2021/05/30 05:33:46;;;;;;;1.40;0.50;;;;;;;17.46;65.00;100208.37;1734936;81;21022;-35
2021/05/30 05:36:16;;;;;;;2.08;0.50;;;;;;;17.77;63.30;100207.25;1730911;82;20981;-37
2021/05/30 05:38:43;;;;;;;0.50;0.50;;;;;;;17.94;61.04;100205.03;1727988;82;20938;-38
2021/05/30 05:41:10;;;;;;;1.75;0.80;;;;;;;17.89;60.82;100213.13;1733867;82;21085;-35
2021/05/30 05:43:37;;;;;;;4.78;0.70;;;;;;;17.71;60.20;100218.88;1726718;82;21025;-37
2021/05/30 05:46:03;;;;;;;1.85;0.72;;;;;;;17.48;60.73;100209.61;1720572;82;21033;-38
2021/05/30 05:48:30;;;;;;;1.47;0.50;;;;;;;17.38;61.81;100204.00;1729405;82;20970;-37
2021/05/30 05:50:56;;;;;;;2.80;0.80;;;;;;;17.38;61.71;100209.23;1738889;81;20966;-36
2021/05/30 05:53:23;;;;;;;5.42;1.00;;;;;;;17.19;62.21;100209.32;1723401;82;21009;-36
2021/05/30 05:55:49;;;;;;;2.75;0.75;;;;;;;17.20;61.82;100205.78;1730077;82;20942;-36
2021/05/30 05:58:15;;;;;;;5.22;0.95;;;;;;;17.15;62.40;100214.30;1723275;82;21120;-36
2021/05/30 06:00:42;;;;;;;4.90;0.75;;;;;;;17.31;63.48;100217.84;1727707;82;20943;-35
2021/05/30 06:03:08;;;;;;;2.37;0.93;;;;;;;17.58;63.34;100221.76;1736127;82;20982;-38
2021/05/30 06:05:34;;;;;;;1.37;0.50;;;;;;;17.80;62.50;100214.45;1708811;82;20925;-37
2021/05/30 06:08:01;;;;;;;12.95;0.70;;;;;;;18.03;61.43;100222.89;1724715;82;21068;-36
2021/05/30 06:10:28;;;;;;;12.85;1.02;;;;;;;18.09;60.20;100216.05;1737580;82;21006;-37
2021/05/30 06:12:58;;;;;;;1.60;0.68;;;;;;;18.12;60.45;100228.59;1735947;82;20918;-37
2021/05/30 06:15:26;;;;;;;3.30;0.70;;;;;;;18.24;61.26;100235.77;1729780;82;21485;-35
2021/05/30 06:17:56;;;;;;;4.92;0.70;;;;;;;18.49;59.45;100214.78;1708886;82;21108;-37
2021/05/30 06:20:22;;;;;;;1.35;0.50;;;;;;;18.47;59.66;100234.53;1725015;82;21003;-37
2021/05/30 06:22:49;;;;;;;3.20;0.80;;;;;;;18.45;59.95;100234.22;1734567;82;21173;-38
2021/05/30 06:25:16;;;;;;;0.85;0.72;;;;;;;18.46;59.52;100234.60;1725068;82;20914;-37
2021/05/30 06:27:42;;;;;;;5.50;0.60;;;;;;;18.56;59.29;100237.08;1724422;82;21013;-38
2021/05/30 06:30:10;;;;;;;4.12;0.68;;;;;;;18.45;59.30;100249.50;1715068;82;21008;-36
2021/05/30 06:32:37;;;;;;;3.27;0.55;;;;;;;18.31;58.61;100235.81;1708678;82;21062;-36
2021/05/30 06:35:05;;;;;;;0.55;0.55;;;;;;;18.30;59.93;100239.36;1708567;82;21058;-37
2021/05/30 06:37:31;;;;;;;2.15;0.53;;;;;;;18.48;59.57;100241.91;1729072;82;21045;-36
2021/05/30 06:39:57;;;;;;;2.00;0.50;;;;;;;18.73;58.56;100246.66;1738391;82;20907;-37
2021/05/30 06:42:24;;;;;;;4.92;0.70;;;;;;;18.84;57.48;100243.43;1723174;82;20939;-37
2021/05/30 06:44:50;;;;;;;7.37;0.60;;;;;;;18.79;57.84;100239.75;1730414;82;20934;-36
2021/05/30 06:47:17;;;;;;;2.30;0.60;;;;;;;18.79;58.04;100234.50;1720527;82;21094;-37
2021/05/30 06:49:43;;;;;;;3.22;0.75;;;;;;;18.51;56.63;100240.43;1722839;82;21586;-36
2021/05/30 06:52:10;;;;;;;3.95;0.62;;;;;;;18.13;58.53;100234.20;1710942;82;21033;-38
2021/05/30 06:54:37;;;;;;;2.25;0.60;;;;;;;18.12;60.57;100240.37;1730051;82;20934;-37
2021/05/30 06:57:05;;;;;;;3.00;0.60;;;;;;;18.36;60.51;100244.29;1734046;82;20891;-38
2021/05/30 06:59:31;;;;;;;0.93;0.72;;;;;;;18.73;57.26;100249.73;1717491;82;21056;-36
2021/05/30 07:01:57;;;;;;;10.45;1.02;;;;;;;18.63;57.42;100249.39;1722349;82;21082;-37
2021/05/30 07:04:26;;;;;;;3.60;0.90;;;;;;;18.66;59.72;100253.14;1739992;82;21513;-39
2021/05/30 07:06:54;;;;;;;13.03;0.82;;;;;;;18.88;58.75;100252.80;1735993;82;21049;-37
2021/05/30 07:09:21;;;;;;;8.63;1.50;;;;;;;19.15;58.28;100256.12;1735591;82;20993;-38
2021/05/30 07:11:47;;;;;;;7.45;1.10;;;;;;;19.29;58.82;100261.88;1722575;81;21101;-38
2021/05/30 07:14:15;;;;;;;1.27;1.02;;;;;;;19.21;58.70;100264.95;1736101;82;21014;-36
2021/05/30 07:16:41;;;;;;;2.10;0.90;;;;;;;18.88;59.33;100272.47;1737231;82;20955;-37
2021/05/30 07:19:08;;;;;;;4.00;1.40;;;;;;;18.64;58.63;100281.22;1737920;82;21630;-38
2021/05/30 07:21:34;;;;;;;3.62;0.98;;;;;;;18.32;61.09;100278.59;1730206;81;21045;-35
2021/05/30 07:24:01;;;;;;;6.62;1.35;;;;;;;18.21;60.96;100279.16;1730959;82;21017;-37
2021/05/30 07:26:28;;;;;;;2.22;1.22;;;;;;;18.36;62.10;100276.17;1744139;82;20930;-36
2021/05/30 07:28:54;;;;;;;3.47;1.27;;;;;;;18.47;60.64;100286.08;1725599;82;20902;-37
2021/05/30 07:31:22;;;;;;;5.58;1.00;;;;;;;18.33;60.60;100283.76;1725847;82;21507;-37
2021/05/30 07:33:49;;;;;;;5.53;1.37;;;;;;;18.24;60.57;100287.71;1719135;82;21634;-39
2021/05/30 07:36:15;;;;;;;53.20;2.95;;;;;;;18.23;61.10;100284.71;1732153;82;21698;-37
2021/05/30 07:38:43;;;;;;;7.80;1.10;;;;;;;18.24;60.46;100289.47;1724731;81;21024;-36
2021/05/30 07:41:10;;;;;;;5.47;1.00;;;;;;;18.16;61.05;100299.04;1720223;82;20953;-38
2021/05/30 07:43:36;;;;;;;2.37;0.85;;;;;;;18.23;60.23;100289.95;1718759;82;21025;-38
2021/05/30 07:46:04;;;;;;;4.92;1.17;;;;;;;18.07;61.01;100296.91;1721738;82;20902;-38
2021/05/30 07:49:24;;;;;;;1.07;0.90;;;;;;;18.18;62.22;100297.18;1776425;79;22614;-39
2021/05/30 07:51:50;;;;;;;0.80;0.80;;;;;;;18.15;61.25;100300.45;1749128;82;20965;-37
2021/05/30 07:54:17;;;;;;;1.00;0.90;;;;;;;18.22;61.73;100305.28;1749110;82;21712;-36
2021/05/30 07:56:45;;;;;;;10.82;1.50;;;;;;;18.39;59.11;100311.37;1749177;82;21508;-38
2021/05/30 07:59:12;;;;;;;11.35;1.20;;;;;;;18.47;60.97;100309.66;1748963;80;20965;-36
2021/05/30 08:01:38;;;;;;;11.40;1.25;;;;;;;18.76;58.69;100311.16;1749129;82;21570;-37
2021/05/30 08:04:05;;;;;;;3.00;1.00;;;;;;;18.81;58.91;100307.81;1749078;82;21434;-38
2021/05/30 08:06:34;;;;;;;0.72;0.72;;;;;;;18.85;58.68;100315.05;1749056;82;21064;-38
2021/05/30 08:09:01;;;;;;;4.80;0.78;;;;;;;18.83;57.22;100308.59;1719534;82;21467;-37
2021/05/30 08:11:28;;;;;;;1.77;0.62;;;;;;;18.74;58.44;100316.50;1748904;82;20958;-38
2021/05/30 08:13:57;;;;;;;6.67;0.85;;;;;;;18.73;58.23;100309.57;1748919;82;20966;-36
2021/05/30 08:16:24;;;;;;;1.72;1.00;;;;;;;18.80;58.23;100317.92;1749020;82;20942;-36
2021/05/30 08:18:52;;;;;;;5.58;1.00;;;;;;;18.73;58.84;100319.19;1748983;82;20918;-37
2021/05/30 08:21:20;;;;;;;3.50;0.70;;;;;;;18.80;59.91;100314.84;1748987;82;21547;-38
2021/05/30 08:23:49;;;;;;;2.77;0.88;;;;;;;19.01;58.21;100317.69;1749055;80;20978;-37
2021/05/30 08:26:16;;;;;;;6.58;0.85;;;;;;;19.12;57.71;100319.72;1748950;82;20954;-37
2021/05/30 08:28:43;;;;;;;1.50;0.85;;;;;;;18.98;57.27;100325.70;1749079;82;20978;-39
2021/05/30 08:31:09;;;;;;;2.50;0.70;;;;;;;18.93;57.76;100325.50;1725794;82;21087;-37
2021/05/30 08:33:36;;;;;;;3.22;0.93;;;;;;;18.94;57.00;100328.95;1719234;83;21570;-38
2021/05/30 08:36:05;;;;;;;1.65;1.10;;;;;;;18.80;58.71;100317.92;1719187;83;21412;-37
2021/05/30 08:38:32;;;;;;;1.05;0.80;;;;;;;18.83;59.09;100325.64;1719111;83;20978;-38
2021/05/30 08:40:58;;;;;;;3.05;0.93;;;;;;;19.08;58.02;100321.69;1719202;83;20970;-38
2021/05/30 08:43:26;;;;;;;10.50;1.10;;;;;;;19.26;57.76;100320.23;1719089;83;21156;-37
2021/05/30 08:45:54;;;;;;;1.42;0.75;;;;;;;19.52;57.88;100327.94;1718917;83;20958;-38
2021/05/30 08:48:21;;;;;;;0.53;0.53;;;;;;;19.72;55.99;100330.70;1713658;83;20915;-37
2021/05/30 08:51:02;;;;;;;2.92;1.45;;;;;;;19.79;54.14;100334.64;1706341;84;21030;-38
2021/05/30 08:53:16;;;;;;;3.27;0.80;;;;;;;19.67;54.91;100339.31;1704405;83;21499;-37
2021/05/30 08:55:42;;;;;;;4.33;0.78;;;;;;;19.47;54.66;100338.69;1706407;84;21907;-36
2021/05/30 08:58:09;;;;;;;1.90;0.60;;;;;;;19.36;56.36;100343.73;1706274;84;20986;-38
2021/05/30 09:00:36;;;;;;;0.90;0.90;;;;;;;19.49;57.71;100339.45;1705866;84;20952;-38
2021/05/30 09:03:13;;;;;;;4.03;1.10;;;;;;;19.78;55.34;100338.20;1705984;84;20915;-38
2021/05/30 09:05:41;;;;;;;8.90;1.27;;;;;;;19.75;56.64;100341.02;1704356;83;20995;-38
2021/05/30 09:08:08;;;;;;;10.72;1.32;;;;;;;19.99;55.68;100342.33;1705772;84;21832;-38
2021/05/30 09:10:35;;;;;;;1.65;1.35;;;;;;;20.14;55.43;100346.64;1705732;84;20934;-37
2021/05/30 09:13:13;;;;;;;0.72;0.70;;;;;;;20.34;53.96;100343.27;1705893;84;20970;-36
2021/05/30 09:15:54;;;;;;;0.60;0.60;;;;;;;20.34;55.41;100338.02;1705817;84;21584;-36
2021/05/30 09:18:33;;;;;;;1.40;0.85;;;;;;;20.37;53.18;100348.34;1705922;84;20947;-36
2021/05/30 09:21:08;;;;;;;3.30;0.85;;;;;;;20.21;54.27;100351.06;1705621;83;21140;-36
2021/05/30 09:23:41;;;;;;;2.00;1.00;;;;;;;19.96;54.92;100343.34;1705986;84;21483;-37
2021/05/30 09:26:22;;;;;;;1.42;1.10;;;;;;;19.92;56.15;100354.97;1705294;83;21010;-35
2021/05/30 09:29:07;;;;;;;2.37;1.00;;;;;;;19.96;55.65;100352.53;1705871;84;20970;-35
2021/05/30 09:31:54;;;;;;;1.67;0.90;;;;;;;19.87;53.86;100355.69;1706107;84;20898;-37
2021/05/30 09:34:31;;;;;;;11.83;1.45;;;;;;;19.71;55.56;100354.44;1706028;84;21463;-37
2021/05/30 09:36:58;;;;;;;0.78;0.70;;;;;;;19.68;54.10;100368.58;1705830;83;20978;-38
2021/05/30 09:39:45;;;;;;;0.80;0.70;;;;;;;19.48;54.37;100365.80;1706011;84;20935;-36
2021/05/30 09:42:33;;;;;;;5.87;1.20;;;;;;;19.62;56.73;100357.95;1705957;84;20987;-37
2021/05/30 09:45:12;;;;;;;3.37;0.85;;;;;;;20.01;53.88;100361.47;1705907;84;21432;-38
2021/05/30 09:47:45;;;;;;;;;;;;;;;19.96;52.62;100357.78;1707678;83;21110;-38
2021/05/30 09:50:19;;;;;;;10.00;1.30;;;;;;;19.66;54.63;100355.52;1705925;82;20165;-38
2021/05/30 09:52:52;;;;;;;7.25;0.90;;;;;;;19.90;55.63;100358.13;1706016;84;20990;-38
2021/05/30 09:55:27;;;;;;;7.92;1.00;;;;;;;20.17;51.75;100370.09;1705780;84;20983;-37
2021/05/30 09:58:14;;;;;;;13.65;1.40;;;;;;;19.96;53.78;100372.23;1705887;84;20923;-37
2021/05/30 10:00:58;;;;;;;14.60;1.35;;;;;;;20.13;53.93;100367.77;1705826;82;21111;-39
2021/05/30 10:03:25;;;;;;;6.70;1.00;;;;;;;20.20;52.61;100373.02;1705778;84;20902;-36
2021/05/30 10:05:52;;;;;;;2.22;0.72;;;;;;;19.98;53.22;100374.30;1705795;84;20903;-36
2021/05/30 10:08:22;;;;;;;4.58;0.75;;;;;;;19.91;53.25;100389.56;1705920;84;21583;-39
2021/05/30 10:10:48;;;;;;;4.22;1.05;;;;;;;19.70;55.03;100375.89;1705696;84;21003;-37
2021/05/30 10:13:15;;;;;;;1.27;0.93;;;;;;;19.65;54.40;100396.32;1705827;84;21163;-41
2021/05/30 10:15:41;;;;;;;1.02;0.85;;;;;;;19.38;55.18;100392.55;1705802;84;20887;-38
2021/05/30 10:18:18;;;;;;;9.05;1.50;;;;;;;19.38;56.21;100395.66;1705929;84;20982;-37
2021/05/30 10:20:47;;;;;;;21.50;1.62;;;;;;;19.71;55.75;100385.46;1705805;84;21034;-39
2021/05/30 10:23:15;;;;;;;5.90;1.10;;;;;;;19.80;54.83;100395.90;1705942;84;21636;-37
2021/05/30 10:25:42;;;;;;;2.08;0.98;;;;;;;19.79;54.80;100395.04;1706057;84;21163;-39
2021/05/30 10:28:13;;;;;;;7.45;0.85;;;;;;;19.99;53.77;100402.25;1705697;84;21017;-38
2021/05/30 10:30:47;;;;;;;1.12;0.70;;;;;;;19.93;53.49;100399.52;1704474;84;20970;-38
2021/05/30 10:33:23;;;;;;;18.75;1.50;;;;;;;19.93;54.09;100395.58;1705016;84;21006;-36
2021/05/30 10:35:49;;;;;;;4.20;0.75;;;;;;;19.91;54.85;100395.30;1702566;84;20943;-39
2021/05/30 10:38:42;;;;;;;3.27;0.70;;;;;;;20.10;54.57;100399.86;1682950;84;22790;-38
2021/05/30 10:41:20;;;;;;;0.70;0.70;;;;;;;20.10;53.19;100411.67;1698142;84;21010;-39
2021/05/30 10:43:47;;;;;;;4.10;0.70;;;;;;;19.88;54.39;100408.59;1705103;84;21424;-38
2021/05/30 10:46:13;;;;;;;22.65;1.50;;;;;;;19.68;53.33;100414.52;1694056;84;20923;-37
2021/05/30 10:48:43;;;;;;;12.78;1.70;;;;;;;19.63;54.25;100420.51;1702428;83;21007;-36
2021/05/30 10:51:24;;;;;;;23.25;2.55;;;;;;;19.67;53.79;100412.83;1684182;84;21102;-37
2021/05/30 10:53:47;;;;;;;3.87;0.82;;;;;;;19.58;54.98;100412.89;1684487;84;20938;-38
2021/05/30 10:56:39;;;;;;;0.65;0.65;;;;;;;19.60;55.68;100417.58;1686567;82;20950;-39
2021/05/30 10:59:17;;;;;;;0.70;0.70;;;;;;;19.73;54.60;100426.08;1692642;84;21000;-37
2021/05/30 11:01:47;;;;;;;4.65;0.80;;;;;;;19.51;53.23;100428.13;1703277;83;20965;-37
2021/05/30 11:04:30;;;;;;;0.35;0.35;;;;;;;19.13;55.32;100439.00;1699418;84;21702;-37
2021/05/30 11:07:22;;;;;;;3.10;0.70;;;;;;;19.03;54.85;100445.66;1689778;84;20982;-38
2021/05/30 11:09:58;;;;;;;13.03;0.98;;;;;;;18.86;55.81;100446.09;1701065;84;21096;-38
2021/05/30 11:12:32;;;;;;;4.97;0.53;;;;;;;18.67;57.32;100451.44;1705844;83;20970;-40
2021/05/30 11:15:16;;;;;;;12.85;1.57;;;;;;;18.71;56.83;100449.06;1705994;84;20994;-38
2021/05/30 11:17:49;;;;;;;3.55;1.50;;;;;;;18.79;57.31;100449.49;1690036;83;20878;-36
2021/05/30 11:20:28;;;;;;;6.15;1.05;;;;;;;19.06;57.40;100448.11;1688318;83;21082;-38
2021/05/30 11:23:11;;;;;;;0.60;0.60;;;;;;;19.31;55.74;100450.70;1697901;84;20982;-37
2021/05/30 11:25:53;;;;;;;2.17;0.75;;;;;;;19.37;55.51;100455.15;1689669;83;20978;-37
2021/05/30 11:28:21;;;;;;;19.15;1.40;;;;;;;19.29;55.97;100451.25;1689313;84;21008;-38
2021/05/30 11:30:51;;;;;;;4.47;1.10;;;;;;;19.20;54.71;100454.77;1693919;83;21041;-39
2021/05/30 11:33:27;;;;;;;1.52;0.80;;;;;;;19.24;56.86;100456.77;1692700;83;21010;-39